Windsorville, Connecticut
Current Conditions -  °F | °C
As of 3:51 AM on Friday 28 Nov 2014 (Local Time) from KBDL Reporting Station
Overcast Overcast  
Wind Chill: 26°   Ceiling: 7000
Heat Index: 31°   Visibility: 10mi
Dew Point: 26°   Wind: 5mph
Humidity: 82%   Direction: 310°NW
Pressure: 30.03"   Gusts: NA
Location:  41.9042°N, 72.5445°W
Report Text: KBDL 280851Z 31004KT 10SM OVC070 M01/M03 A3003 RMK AO2 SLP169 T10061033 53006
Loading
Personal Weather Stations






























Interactive Weather Map New forecast layout! Learn more

10-Day Weather Forecast

Advertisements
Track Severe Weather on mobile